createdAt,value
2022-12-08T00:00:49.333Z,11.6
2022-12-08T00:01:56.593Z,10.8
2022-12-08T00:03:03.779Z,11.3
2022-12-08T00:04:10.735Z,10.5
2022-12-08T00:05:18.034Z,11.1
2022-12-08T00:06:30.418Z,10.5
2022-12-08T00:07:52.341Z,11.5
2022-12-08T00:09:04.591Z,9.8
2022-12-08T00:10:48.293Z,11.7
2022-12-08T00:11:32.145Z,10.9
2022-12-08T00:12:39.285Z,11.6
2022-12-08T00:13:46.461Z,10.7
2022-12-08T00:14:53.769Z,10.6
2022-12-08T00:16:00.677Z,10.4
2022-12-08T00:17:08.033Z,10.5
2022-12-08T00:18:15.018Z,11.3
2022-12-08T00:19:22.282Z,11.1
2022-12-08T00:20:29.214Z,10.7
2022-12-08T00:21:36.316Z,10.6
2022-12-08T00:22:43.489Z,11.7
2022-12-08T00:23:50.659Z,11.1
2022-12-08T00:24:57.745Z,12
2022-12-08T00:26:04.997Z,10.8
2022-12-08T00:27:12.150Z,11.7
2022-12-08T00:28:19.444Z,11.1
2022-12-08T00:29:26.781Z,10.8
2022-12-08T00:30:40.357Z,10.1
2022-12-08T00:31:47.339Z,11.6
2022-12-08T00:32:54.404Z,11.6
2022-12-08T00:34:01.516Z,11.4
2022-12-08T00:35:08.737Z,12.3
2022-12-08T00:36:15.846Z,12.1
2022-12-08T00:37:23.152Z,12.1
2022-12-08T00:38:30.474Z,11.3
2022-12-08T00:39:37.615Z,11.3
2022-12-08T00:40:44.901Z,11.3
2022-12-08T00:41:51.969Z,10.4
2022-12-08T00:43:04.208Z,11.1
2022-12-08T00:44:12.318Z,10.9
2022-12-08T00:45:19.493Z,10.3
2022-12-08T00:46:26.493Z,11
2022-12-08T00:47:33.770Z,10
2022-12-08T00:48:40.881Z,10.6
2022-12-08T00:49:47.909Z,10.3
2022-12-08T00:50:55.072Z,11.4
2022-12-08T00:52:03.593Z,10.7
2022-12-08T00:53:12.912Z,11.3
2022-12-08T00:54:19.993Z,10.7
2022-12-08T00:55:27.066Z,10.7
2022-12-08T00:56:34.215Z,11.2
2022-12-08T00:57:41.264Z,11.3
2022-12-08T00:58:48.389Z,11.3
2022-12-08T00:59:55.608Z,10.7
2022-12-08T01:01:02.859Z,10.9
2022-12-08T01:02:18.101Z,10.8
2022-12-08T01:03:25.081Z,10.7
2022-12-08T01:04:32.077Z,10.9
2022-12-08T01:05:39.205Z,11.5
2022-12-08T01:06:46.388Z,9.6
2022-12-08T01:07:53.574Z,10.6
2022-12-08T01:09:04.986Z,10.6
2022-12-08T01:10:11.866Z,10.2
2022-12-08T01:11:18.997Z,11.2
2022-12-08T01:12:25.933Z,10.1
2022-12-08T01:13:33.094Z,10.9
2022-12-08T01:14:40.305Z,10.5
2022-12-08T01:15:47.334Z,10.2
2022-12-08T01:16:54.928Z,10.3
2022-12-08T01:18:02.169Z,9.9
2022-12-08T01:19:09.776Z,10.5
2022-12-08T01:20:17.023Z,10.7
2022-12-08T01:21:23.948Z,10.4
2022-12-08T01:22:31.202Z,10.1
2022-12-08T01:23:38.279Z,11.4
2022-12-08T01:24:45.452Z,10.5
2022-12-08T01:25:52.557Z,9.7
2022-12-08T01:26:59.730Z,10
2022-12-08T01:28:07.016Z,10.3
2022-12-08T01:29:14.301Z,9.1
2022-12-08T01:30:21.156Z,10.3
2022-12-08T01:31:28.233Z,10.2
2022-12-08T01:32:35.256Z,9.8
2022-12-08T01:33:42.469Z,10.1
2022-12-08T01:34:49.704Z,10.1
2022-12-08T01:35:56.825Z,10.6
2022-12-08T01:37:06.685Z,10.5
2022-12-08T01:38:13.576Z,10.2
2022-12-08T01:39:20.741Z,9.7
2022-12-08T01:40:27.688Z,9.6
2022-12-08T01:41:34.849Z,10.7
2022-12-08T01:42:42.081Z,9.7
2022-12-08T01:43:49.268Z,10.7
2022-12-08T01:45:02.530Z,10.2
2022-12-08T01:46:17.312Z,9.8
2022-12-08T01:47:24.152Z,8.9
2022-12-08T01:48:31.317Z,10.4
2022-12-08T01:49:38.713Z,10.2
2022-12-08T01:50:45.645Z,9.4
2022-12-08T01:51:52.708Z,10.6
2022-12-08T01:52:59.917Z,11.1
2022-12-08T01:54:10.104Z,10.4
2022-12-08T01:55:17.304Z,9.7
2022-12-08T01:56:27.295Z,9.8
2022-12-08T01:57:39.502Z,10.5
2022-12-08T01:58:46.652Z,9.4
2022-12-08T01:59:53.785Z,9.4
2022-12-08T02:01:03.619Z,9.9
2022-12-08T02:02:10.793Z,10.6
2022-12-08T02:03:17.852Z,9.7
2022-12-08T02:04:25.039Z,8.9
2022-12-08T02:05:32.216Z,9.9
2022-12-08T02:06:39.157Z,9.7
2022-12-08T02:07:46.362Z,9.3
2022-12-08T02:08:53.472Z,10
2022-12-08T02:10:00.872Z,9.1
2022-12-08T02:11:07.777Z,9.8
2022-12-08T02:12:14.872Z,10
2022-12-08T02:13:22.013Z,10.2
2022-12-08T02:14:29.058Z,9.7
2022-12-08T02:15:36.218Z,9.4
2022-12-08T02:16:51.056Z,9.9
2022-12-08T02:18:03.240Z,10.2
2022-12-08T02:19:34.009Z,9.7
2022-12-08T02:20:33.593Z,9.1
2022-12-08T02:21:51.025Z,10
2022-12-08T02:23:05.820Z,10
2022-12-08T02:24:23.224Z,10.3
2022-12-08T02:25:30.320Z,9.4
2022-12-08T02:26:43.413Z,9.5
2022-12-08T02:27:56.644Z,9.4
2022-12-08T02:29:12.009Z,9.8
2022-12-08T02:30:27.139Z,9.8
2022-12-08T02:31:41.947Z,10.8
2022-12-08T02:32:59.777Z,10.3
2022-12-08T02:34:11.998Z,9.9
2022-12-08T02:35:19.138Z,10.3
2022-12-08T02:36:34.277Z,9.1
2022-12-08T02:37:51.693Z,10
2022-12-08T02:39:06.477Z,9.5
2022-12-08T02:40:18.708Z,9.5
2022-12-08T02:41:28.789Z,9.9
2022-12-08T02:42:41.025Z,10
2022-12-08T02:43:48.243Z,9.7
2022-12-08T02:44:58.496Z,9.7
2022-12-08T02:46:10.629Z,10.1
2022-12-08T02:47:20.292Z,9.9
2022-12-08T02:48:27.392Z,9.9
2022-12-08T02:49:34.445Z,9.3
2022-12-08T02:50:41.560Z,9.2
2022-12-08T02:51:48.633Z,9.7
2022-12-08T02:52:55.796Z,9
2022-12-08T02:54:03.004Z,9.4
2022-12-08T02:55:10.321Z,9.8
2022-12-08T02:56:22.405Z,8.8
2022-12-08T02:57:34.433Z,8.8
2022-12-08T02:58:41.579Z,9.9
2022-12-08T02:59:56.896Z,9.4
2022-12-08T03:01:09.338Z,9.1
2022-12-08T03:02:21.468Z,9.7
2022-12-08T03:03:33.449Z,9.3
2022-12-08T03:04:48.244Z,9.8
2022-12-08T03:06:00.447Z,9.5
2022-12-08T03:07:10.324Z,10.2
2022-12-08T03:08:23.537Z,9.6
2022-12-08T03:09:33.528Z,9.9
2022-12-08T03:10:40.821Z,9
2022-12-08T03:11:52.937Z,9.1
2022-12-08T03:13:00.105Z,10
2022-12-08T03:14:17.322Z,9.7
2022-12-08T03:15:24.321Z,10.4
2022-12-08T03:16:31.561Z,10.5
2022-12-08T03:17:38.721Z,10.3
2022-12-08T03:18:45.770Z,10.1
2022-12-08T03:19:52.908Z,10
2022-12-08T03:21:00.054Z,9.1
2022-12-08T03:22:07.258Z,9.8
2022-12-08T03:23:14.355Z,8.6
2022-12-08T03:24:21.585Z,10.2
2022-12-08T03:25:28.550Z,9.7
2022-12-08T03:26:35.674Z,9.6
2022-12-08T03:27:42.945Z,10.4
2022-12-08T03:28:50.034Z,10.8
2022-12-08T03:29:57.177Z,9.7
2022-12-08T03:31:04.364Z,9.9
2022-12-08T03:32:11.460Z,9.7
2022-12-08T03:33:27.054Z,9.5
2022-12-08T03:34:34.260Z,9.1
2022-12-08T03:35:42.350Z,10.3
2022-12-08T03:36:49.609Z,9.9
2022-12-08T03:37:56.775Z,8.9
2022-12-08T03:39:09.117Z,9.6
2022-12-08T03:40:16.896Z,9.2
2022-12-08T03:41:23.891Z,9.9
2022-12-08T03:42:30.821Z,10.1
2022-12-08T03:43:37.962Z,9.1
2022-12-08T03:44:45.180Z,10
2022-12-08T03:45:52.529Z,9.9
2022-12-08T03:46:59.671Z,10.1
2022-12-08T03:48:06.601Z,9.4
2022-12-08T03:49:13.753Z,10.2
2022-12-08T03:50:20.917Z,9.7
2022-12-08T03:51:27.946Z,10.2
2022-12-08T03:52:35.065Z,9.8
2022-12-08T03:53:42.201Z,10.6
2022-12-08T03:54:50.232Z,10.1
2022-12-08T03:55:57.508Z,9.3
2022-12-08T03:57:04.657Z,10.3
2022-12-08T03:58:11.828Z,9.2
2022-12-08T03:59:19.073Z,9.3
2022-12-08T04:00:25.964Z,9.8
2022-12-08T04:01:33.231Z,9.8
2022-12-08T04:02:40.282Z,9.9
2022-12-08T04:03:47.417Z,9.2
2022-12-08T04:04:54.805Z,9.6
2022-12-08T04:06:01.801Z,9.8
2022-12-08T04:07:08.940Z,10
2022-12-08T04:08:16.204Z,9
2022-12-08T04:09:23.263Z,9.1
2022-12-08T04:10:30.192Z,9.7
2022-12-08T04:11:37.347Z,9.4
2022-12-08T04:12:45.633Z,9.8
2022-12-08T04:13:52.724Z,9.2
2022-12-08T04:14:59.882Z,9.2
2022-12-08T04:16:07.108Z,9.4
2022-12-08T04:17:19.242Z,9.8
2022-12-08T04:18:26.246Z,10.9
2022-12-08T04:19:33.329Z,9.9
2022-12-08T04:20:40.547Z,10.3
2022-12-08T04:21:47.664Z,10
2022-12-08T04:22:55.032Z,11
2022-12-08T04:24:01.968Z,10.5
2022-12-08T04:25:09.119Z,11.7
2022-12-08T04:26:16.262Z,10.7
2022-12-08T04:27:23.450Z,10.9
2022-12-08T04:28:30.563Z,11.5
2022-12-08T04:29:37.948Z,11.6
2022-12-08T04:30:45.131Z,11.1
2022-12-08T04:31:52.479Z,11.9
2022-12-08T04:32:59.430Z,12.2
2022-12-08T04:34:06.654Z,10.4
2022-12-08T04:35:14.660Z,12.4
2022-12-08T04:36:21.997Z,11.1
2022-12-08T04:37:28.938Z,10.8
2022-12-08T04:38:35.971Z,10.3
2022-12-08T04:39:43.219Z,10.8
2022-12-08T04:40:50.319Z,11.2
2022-12-08T04:41:57.620Z,11.2
2022-12-08T04:43:04.827Z,11
2022-12-08T04:44:11.907Z,11.2
2022-12-08T04:45:18.980Z,11.1
2022-12-08T04:46:25.972Z,10.3
2022-12-08T04:47:33.132Z,11.1
2022-12-08T04:48:40.377Z,11
2022-12-08T04:49:47.520Z,11.6
2022-12-08T04:50:54.470Z,9.8
2022-12-08T04:52:01.750Z,11.1
2022-12-08T04:53:08.914Z,11.1
2022-12-08T04:54:21.487Z,9.8
2022-12-08T04:55:28.677Z,11
2022-12-08T04:56:35.895Z,12.1
2022-12-08T04:57:43.584Z,12
2022-12-08T04:58:50.907Z,12.1
2022-12-08T04:59:57.934Z,13.3
2022-12-08T05:01:04.991Z,11.8
2022-12-08T05:02:12.277Z,11.6
2022-12-08T05:03:22.630Z,12.5
2022-12-08T05:04:26.274Z,11.7
2022-12-08T05:05:33.561Z,11.8
2022-12-08T05:06:41.472Z,11.8
2022-12-08T05:07:49.543Z,12.2
2022-12-08T05:08:56.942Z,12.8
2022-12-08T05:10:04.788Z,13.3
2022-12-08T05:11:11.876Z,13
2022-12-08T05:12:18.906Z,13.5
2022-12-08T05:13:26.022Z,14.1
2022-12-08T05:14:33.015Z,14
2022-12-08T05:15:40.144Z,13.5
2022-12-08T05:16:47.478Z,13.8
2022-12-08T05:17:54.622Z,12.6
2022-12-08T05:19:01.726Z,13.1
2022-12-08T05:20:08.811Z,11.9
2022-12-08T05:21:16.008Z,12.7
2022-12-08T05:22:23.078Z,11.6
2022-12-08T05:23:30.046Z,12.5
2022-12-08T05:24:39.325Z,12.7
2022-12-08T05:25:44.595Z,12.4
2022-12-08T05:26:51.600Z,10.8
2022-12-08T05:28:17.928Z,10.9
2022-12-08T05:29:05.912Z,11.4
2022-12-08T05:30:13.027Z,12.2
2022-12-08T05:31:20.299Z,10.7
2022-12-08T05:32:27.890Z,12.1
2022-12-08T05:33:34.798Z,11
2022-12-08T05:34:41.927Z,11.9
2022-12-08T05:35:49.060Z,11.5
2022-12-08T05:36:56.214Z,10.9
2022-12-08T05:38:03.401Z,11.5
2022-12-08T05:39:10.507Z,10.2
2022-12-08T05:40:17.746Z,11
2022-12-08T05:41:24.837Z,11.3
2022-12-08T05:42:31.743Z,10.7
2022-12-08T05:43:38.906Z,11.6
2022-12-08T05:44:46.023Z,11.3
2022-12-08T05:45:53.292Z,10.7
2022-12-08T05:47:00.498Z,12.2
2022-12-08T05:48:07.478Z,10.4
2022-12-08T05:49:14.614Z,11.4
2022-12-08T05:50:21.808Z,11.9
2022-12-08T05:51:28.890Z,11
2022-12-08T05:52:35.994Z,11.5
2022-12-08T05:53:43.134Z,10.9
2022-12-08T05:54:50.367Z,10.9
2022-12-08T05:55:57.442Z,12
2022-12-08T05:57:04.648Z,11.2
2022-12-08T05:58:11.846Z,11.1
2022-12-08T05:59:19.134Z,11.3
2022-12-08T06:00:26.527Z,10.4
2022-12-08T06:01:33.653Z,10.7
2022-12-08T06:02:41.141Z,11.9
2022-12-08T06:03:48.187Z,11.6
2022-12-08T06:04:55.082Z,11.3
2022-12-08T06:06:02.398Z,10.9
2022-12-08T06:07:14.618Z,11.1
2022-12-08T06:08:17.035Z,11.6
2022-12-08T06:09:24.206Z,12.4
2022-12-08T06:10:31.132Z,10.8
2022-12-08T06:11:38.756Z,12.6
2022-12-08T06:12:45.951Z,12.7
2022-12-08T06:13:53.366Z,11.5
2022-12-08T06:15:00.303Z,12.4
2022-12-08T06:16:07.552Z,12.2
2022-12-08T06:17:14.546Z,12.6
2022-12-08T06:18:21.745Z,11.7
2022-12-08T06:19:28.671Z,12
2022-12-08T06:20:35.898Z,11.8
2022-12-08T06:21:43.082Z,12.4
2022-12-08T06:22:50.994Z,11.5
2022-12-08T06:23:57.863Z,12.4
2022-12-08T06:25:08.525Z,12.9
2022-12-08T06:26:12.153Z,13.1
2022-12-08T06:27:19.424Z,12.8
2022-12-08T06:28:26.506Z,13.5
2022-12-08T06:29:33.510Z,12.7
2022-12-08T06:30:40.688Z,12.6
2022-12-08T06:31:48.157Z,12.5
2022-12-08T06:32:55.514Z,12.8
2022-12-08T06:34:02.706Z,12.6
2022-12-08T06:35:09.804Z,12.8
2022-12-08T06:36:16.904Z,12.5
2022-12-08T06:37:24.110Z,12.5
2022-12-08T06:38:31.118Z,11
2022-12-08T06:39:39.203Z,11.3
2022-12-08T06:40:46.542Z,11.5
2022-12-08T06:41:58.675Z,11.4
2022-12-08T06:43:10.935Z,11.6
2022-12-08T06:44:18.106Z,11.9
2022-12-08T06:45:25.650Z,11.6
2022-12-08T06:46:34.547Z,12.4
2022-12-08T06:47:41.410Z,12
2022-12-08T06:48:48.634Z,12.8
2022-12-08T06:49:55.729Z,11.9
2022-12-08T06:51:03.835Z,11.2
2022-12-08T06:52:14.199Z,11.6
2022-12-08T06:53:21.392Z,12.2
2022-12-08T06:54:28.268Z,11.6
2022-12-08T06:55:57.639Z,11.6
2022-12-08T06:56:48.674Z,11.7
2022-12-08T06:57:57.116Z,11.5
2022-12-08T06:59:03.102Z,12.3
2022-12-08T07:00:10.175Z,12.3
2022-12-08T07:01:17.963Z,12
2022-12-08T07:02:25.035Z,10.9
2022-12-08T07:03:31.983Z,10.8
2022-12-08T07:04:39.330Z,11.3
2022-12-08T07:05:46.394Z,11.1
2022-12-08T07:06:53.559Z,11.4
2022-12-08T07:08:00.684Z,11.4
2022-12-08T07:09:08.213Z,10.6
2022-12-08T07:10:15.516Z,10.2
2022-12-08T07:11:22.912Z,11.2
2022-12-08T07:12:29.858Z,11.9
2022-12-08T07:13:37.686Z,11.1
2022-12-08T07:14:44.993Z,12.2
2022-12-08T07:15:52.033Z,10.5
2022-12-08T07:16:59.251Z,10.6
2022-12-08T07:18:06.478Z,11.1
2022-12-08T07:19:14.574Z,11.3
2022-12-08T07:20:21.922Z,11.3
2022-12-08T07:21:28.811Z,10.8
2022-12-08T07:22:35.971Z,12.7
2022-12-08T07:23:43.042Z,10.1
2022-12-08T07:24:50.243Z,11.3
2022-12-08T07:25:57.687Z,12.1
2022-12-08T07:27:07.578Z,12.6
2022-12-08T07:28:14.766Z,12.2
2022-12-08T07:29:26.152Z,11.1
2022-12-08T07:30:28.887Z,11.6
2022-12-08T07:31:36.021Z,12.7
2022-12-08T07:32:43.183Z,11.4
2022-12-08T07:33:50.382Z,11.6
2022-12-08T07:34:57.603Z,11.5
2022-12-08T07:36:04.638Z,12.5
2022-12-08T07:37:11.786Z,12.9
2022-12-08T07:38:18.987Z,12.8
2022-12-08T07:39:26.106Z,13.5
2022-12-08T07:40:33.302Z,13.7
2022-12-08T07:41:40.271Z,14.2
2022-12-08T07:42:47.400Z,13.9
2022-12-08T07:43:54.560Z,13.3
2022-12-08T07:45:01.682Z,13.1
2022-12-08T07:46:08.917Z,11.9
2022-12-08T07:47:18.590Z,13.7
2022-12-08T07:48:25.731Z,12.9
2022-12-08T07:49:32.854Z,12.8
2022-12-08T07:50:39.830Z,13.1
2022-12-08T07:51:46.966Z,12.6
2022-12-08T07:52:54.067Z,13.5
2022-12-08T07:54:01.291Z,13.5
2022-12-08T07:55:08.534Z,12.6
2022-12-08T07:56:15.753Z,14.1
2022-12-08T07:57:22.710Z,12.4
2022-12-08T07:58:32.136Z,14.4
2022-12-08T07:59:40.404Z,11
2022-12-08T08:00:47.653Z,13.6
2022-12-08T08:02:13.361Z,14
2022-12-08T08:03:01.963Z,14.1
2022-12-08T08:04:09.164Z,14
2022-12-08T08:05:16.231Z,14.8
2022-12-08T08:06:23.400Z,15.7
2022-12-08T08:07:30.314Z,14
2022-12-08T08:08:37.515Z,14.3
2022-12-08T08:09:44.706Z,14.8
2022-12-08T08:10:52.068Z,15.7
2022-12-08T08:12:22.637Z,13.8
2022-12-08T08:13:06.268Z,13.6
2022-12-08T08:14:13.267Z,12.9
2022-12-08T08:15:20.394Z,12.7
2022-12-08T08:16:28.028Z,14.1
2022-12-08T08:17:34.944Z,14.2
2022-12-08T08:18:41.659Z,12.6
2022-12-08T08:19:50.163Z,13
2022-12-08T08:21:06.585Z,13.8
2022-12-08T08:22:05.719Z,13.3
2022-12-08T08:23:12.967Z,12
2022-12-08T08:24:20.099Z,12
2022-12-08T08:25:27.308Z,13.8
2022-12-08T08:26:34.217Z,13.5
2022-12-08T08:27:41.396Z,13.1
2022-12-08T08:28:48.578Z,13.1
2022-12-08T08:29:55.675Z,12.9
2022-12-08T08:31:02.991Z,13.6
2022-12-08T08:32:10.044Z,13
2022-12-08T08:33:17.076Z,14.2
2022-12-08T08:34:24.330Z,13.7
2022-12-08T08:35:31.250Z,13.9
2022-12-08T08:36:38.431Z,14.5
2022-12-08T08:37:48.762Z,14.6
2022-12-08T08:38:52.823Z,13
2022-12-08T08:39:59.862Z,15.4
2022-12-08T08:41:06.978Z,14.4
2022-12-08T08:42:14.124Z,13.8
2022-12-08T08:43:21.295Z,14.8
2022-12-08T08:44:33.395Z,13.8
2022-12-08T08:45:40.438Z,13.1
2022-12-08T08:46:47.734Z,14
2022-12-08T08:47:54.802Z,15.1
2022-12-08T08:49:01.909Z,13.7
2022-12-08T08:50:09.187Z,14.8
2022-12-08T08:51:16.195Z,14.5
2022-12-08T08:52:23.497Z,14
2022-12-08T08:53:30.425Z,13
2022-12-08T08:54:37.608Z,14.2
2022-12-08T08:55:44.655Z,13.6
2022-12-08T08:56:51.842Z,13.2
2022-12-08T08:57:59.026Z,13.3
2022-12-08T08:59:06.193Z,13.1
2022-12-08T09:00:13.408Z,14.1
2022-12-08T09:01:20.721Z,14
2022-12-08T09:02:28.894Z,12.6
2022-12-08T09:03:36.100Z,12.8
2022-12-08T09:04:43.328Z,12.9
2022-12-08T09:05:50.445Z,13.1
2022-12-08T09:06:57.638Z,13.2
2022-12-08T09:08:05.936Z,13.5
2022-12-08T09:09:12.893Z,12.4
2022-12-08T09:10:20.144Z,13.1
2022-12-08T09:11:27.286Z,11.4
2022-12-08T09:12:34.223Z,11.9
2022-12-08T09:13:41.338Z,11.7
2022-12-08T09:14:48.613Z,11.3
2022-12-08T09:15:55.755Z,12.9
2022-12-08T09:17:06.246Z,12.1
2022-12-08T09:18:13.198Z,12.3
2022-12-08T09:19:20.239Z,11.3
2022-12-08T09:20:27.476Z,12.3
2022-12-08T09:21:34.379Z,13.3
2022-12-08T09:22:41.487Z,12.6
2022-12-08T09:23:48.948Z,12.9
2022-12-08T09:24:55.809Z,13.3
2022-12-08T09:26:02.958Z,13.1
2022-12-08T09:27:10.147Z,12.6
2022-12-08T09:28:17.246Z,13.7
2022-12-08T09:29:24.462Z,12.8
2022-12-08T09:30:31.412Z,12.7
2022-12-08T09:31:38.591Z,13
2022-12-08T09:32:45.575Z,14.1
2022-12-08T09:33:52.819Z,14.4
2022-12-08T09:34:59.926Z,12.4
2022-12-08T09:36:07.099Z,12.8
2022-12-08T09:37:14.248Z,13.5
2022-12-08T09:38:21.631Z,13.2
2022-12-08T09:39:28.603Z,11.8
2022-12-08T09:40:35.523Z,13
2022-12-08T09:41:50.386Z,12.8
2022-12-08T09:43:03.139Z,13.1
2022-12-08T09:44:13.394Z,11.5
2022-12-08T09:45:31.063Z,13.3
2022-12-08T09:46:38.175Z,11.6
2022-12-08T09:47:45.307Z,12.6
2022-12-08T09:49:00.303Z,12.4
2022-12-08T09:50:08.009Z,13.5
2022-12-08T09:51:17.602Z,13.8
2022-12-08T09:52:24.799Z,13.9
2022-12-08T09:53:35.414Z,13.7
2022-12-08T09:54:43.955Z,14.5
2022-12-08T09:55:51.338Z,15.6
2022-12-08T09:57:03.850Z,13.3
2022-12-08T09:58:11.127Z,14.9
2022-12-08T09:59:26.283Z,15.2
2022-12-08T10:00:36.398Z,13
2022-12-08T10:01:43.564Z,15.9
2022-12-08T10:02:50.742Z,16
2022-12-08T10:03:57.891Z,14.4
2022-12-08T10:05:05.114Z,14.6
2022-12-08T10:06:12.226Z,15.6
2022-12-08T10:07:29.606Z,14.6
2022-12-08T10:08:42.121Z,15.2
2022-12-08T10:09:49.274Z,16
2022-12-08T10:11:06.650Z,15.7
2022-12-08T10:12:19.870Z,14.8
2022-12-08T10:13:34.465Z,15.9
2022-12-08T10:14:41.562Z,15.4
2022-12-08T10:15:59.048Z,16.6
2022-12-08T10:17:16.419Z,13.9
2022-12-08T10:18:23.440Z,13.6
2022-12-08T10:19:30.398Z,14.6
2022-12-08T10:20:37.650Z,14.1
2022-12-08T10:21:44.820Z,14.5
2022-12-08T10:22:51.898Z,16.9
2022-12-08T10:23:58.979Z,16.4
2022-12-08T10:25:06.203Z,15.7
2022-12-08T10:26:20.950Z,16.5
2022-12-08T10:27:28.183Z,16.2
2022-12-08T10:28:38.885Z,14.8
2022-12-08T10:29:42.699Z,15.6
2022-12-08T10:30:49.975Z,14.1
2022-12-08T10:31:57.280Z,11.8
2022-12-08T10:33:04.271Z,12.3
2022-12-08T10:34:19.826Z,12.9
2022-12-08T10:35:26.806Z,14.2
2022-12-08T10:36:44.313Z,14.5
2022-12-08T10:37:54.080Z,15.2
2022-12-08T10:39:01.179Z,14.4
2022-12-08T10:40:08.582Z,13
2022-12-08T10:41:15.627Z,11.5
2022-12-08T10:42:22.795Z,11.8
2022-12-08T10:43:29.757Z,10.6
2022-12-08T10:44:36.778Z,11.4
2022-12-08T10:45:44.017Z,12
2022-12-08T10:46:51.107Z,12.5
2022-12-08T10:47:58.407Z,13
2022-12-08T10:49:05.535Z,13.7
2022-12-08T10:50:12.530Z,13.7
2022-12-08T10:51:25.042Z,13.2
2022-12-08T10:52:32.217Z,13.1
2022-12-08T10:53:41.997Z,12.8
2022-12-08T10:54:49.087Z,12.7
2022-12-08T10:55:56.230Z,12.2
2022-12-08T10:57:06.469Z,12.7
2022-12-08T10:58:13.701Z,13.8
2022-12-08T10:59:25.853Z,14.1
2022-12-08T11:00:32.989Z,14.5
2022-12-08T11:01:40.487Z,14.1
2022-12-08T11:02:50.382Z,13.9
2022-12-08T11:03:59.949Z,13
2022-12-08T11:05:07.265Z,12.6
2022-12-08T11:06:14.317Z,12.4
2022-12-08T11:07:21.344Z,11.5
2022-12-08T11:08:28.613Z,12.6
2022-12-08T11:09:35.462Z,12.1
2022-12-08T11:10:47.698Z,10.7
2022-12-08T11:11:54.840Z,11.2
2022-12-08T11:13:07.135Z,12
2022-12-08T11:14:19.418Z,12.1
2022-12-08T11:15:32.578Z,11.7
2022-12-08T11:16:39.727Z,11.9
2022-12-08T11:17:46.749Z,12.8
2022-12-08T11:18:53.969Z,13.2
2022-12-08T11:20:01.125Z,12.3
2022-12-08T11:21:13.407Z,12.7
2022-12-08T11:22:20.467Z,11.7
2022-12-08T11:23:30.140Z,11.7
2022-12-08T11:24:37.750Z,11.7
2022-12-08T11:25:44.345Z,12.2
2022-12-08T11:26:51.409Z,11.2
2022-12-08T11:27:58.529Z,13.4
2022-12-08T11:29:05.713Z,11.4
2022-12-08T11:30:15.780Z,11.5
2022-12-08T11:31:27.802Z,10.7
2022-12-08T11:32:34.601Z,10.3
2022-12-08T11:33:41.781Z,10.6
2022-12-08T11:34:48.909Z,10.7
2022-12-08T11:35:59.151Z,11.4
2022-12-08T11:37:08.825Z,10.6
2022-12-08T11:38:22.494Z,11.7
2022-12-08T11:39:25.722Z,11.1
2022-12-08T11:40:32.782Z,10.7
2022-12-08T11:41:39.802Z,10.7
2022-12-08T11:42:46.921Z,10.4
2022-12-08T11:43:56.665Z,11.5
2022-12-08T11:45:07.212Z,10.2
2022-12-08T11:46:16.619Z,11
2022-12-08T11:47:26.310Z,11.2
2022-12-08T11:48:38.933Z,11.7
2022-12-08T11:49:48.746Z,10.9
2022-12-08T11:50:55.690Z,12.2
2022-12-08T11:52:02.948Z,11.6
2022-12-08T11:53:15.156Z,10.3
2022-12-08T11:54:32.742Z,11
2022-12-08T11:55:41.712Z,11.1
2022-12-08T11:56:47.201Z,11.6
2022-12-08T11:57:59.828Z,12.9
2022-12-08T11:59:18.161Z,12.2
2022-12-08T12:00:33.253Z,11.5
2022-12-08T12:01:42.605Z,12.3
2022-12-08T12:02:47.774Z,12.8
2022-12-08T12:03:54.653Z,13.1
2022-12-08T12:05:10.016Z,13
2022-12-08T12:07:42.559Z,10.9
2022-12-08T12:08:54.736Z,11.5
2022-12-08T12:10:09.840Z,10.4
2022-12-08T12:11:27.356Z,11.4
2022-12-08T12:12:47.529Z,10.9
2022-12-08T12:14:04.905Z,11.5
2022-12-08T12:15:18.513Z,11.8
2022-12-08T12:16:30.793Z,10.6
2022-12-08T12:17:49.078Z,11.6
2022-12-08T12:18:56.297Z,11.4
2022-12-08T12:20:04.623Z,10.9
2022-12-08T12:21:16.825Z,10.2
2022-12-08T12:22:29.757Z,9.3
2022-12-08T12:23:36.873Z,10
2022-12-08T12:24:46.698Z,10.1
2022-12-08T12:25:53.842Z,9.7
2022-12-08T12:27:03.549Z,9.9
2022-12-08T12:28:10.705Z,9.9
2022-12-08T12:29:17.860Z,10.7
2022-12-08T12:30:25.052Z,9.8
2022-12-08T12:31:31.960Z,10.6
2022-12-08T12:32:43.272Z,10.3
2022-12-08T12:33:50.328Z,11
2022-12-08T12:34:57.510Z,11.5
2022-12-08T12:36:04.593Z,10.1
2022-12-08T12:37:12.330Z,10.4
2022-12-08T12:38:27.805Z,10.8
2022-12-08T12:39:40.182Z,9.6
2022-12-08T12:40:54.997Z,11.1
2022-12-08T12:42:02.109Z,10.7
2022-12-08T12:43:09.309Z,9.6
2022-12-08T12:44:16.681Z,11
2022-12-08T12:45:23.690Z,11.4
2022-12-08T12:46:30.839Z,10.9
2022-12-08T12:47:40.257Z,11.8
2022-12-08T12:48:53.235Z,12.9
2022-12-08T12:50:00.221Z,11.2
2022-12-08T12:51:11.014Z,12.2
2022-12-08T12:52:26.318Z,12.3
2022-12-08T12:53:36.289Z,12.4
2022-12-08T12:54:43.388Z,13
2022-12-08T12:55:53.144Z,12.9
2022-12-08T12:57:00.412Z,12.6
2022-12-08T12:58:07.412Z,12.5
2022-12-08T12:59:24.713Z,11.9
2022-12-08T13:00:39.858Z,12.2
2022-12-08T13:01:47.248Z,12.7
2022-12-08T13:02:54.296Z,13
2022-12-08T13:04:02.185Z,14.7
2022-12-08T13:05:12.257Z,14.2
2022-12-08T13:06:22.352Z,14.7
2022-12-08T13:07:37.919Z,14.6
2022-12-08T13:08:52.881Z,15.6
2022-12-08T13:09:59.929Z,14.9
2022-12-08T13:11:18.247Z,14.3
2022-12-08T13:12:25.508Z,14.4
2022-12-08T13:13:32.364Z,15.7
2022-12-08T13:14:39.540Z,15.4
2022-12-08T13:15:49.273Z,13.7
2022-12-08T13:16:59.444Z,14.7
2022-12-08T13:18:06.768Z,15.1
2022-12-08T13:19:19.205Z,15.7
2022-12-08T13:20:26.484Z,14.6
2022-12-08T13:21:33.626Z,15.8
2022-12-08T13:22:42.296Z,15.8
2022-12-08T13:23:57.521Z,14.5
2022-12-08T13:25:14.776Z,14.9
2022-12-08T13:26:32.350Z,15.6
2022-12-08T13:27:49.872Z,14.8
2022-12-08T13:28:57.169Z,14.9
2022-12-08T13:30:09.328Z,15.3
2022-12-08T13:31:26.720Z,15.1
2022-12-08T13:33:16.568Z,13.5
2022-12-08T13:33:59.562Z,12
2022-12-08T13:35:14.929Z,14.4
2022-12-08T13:36:21.960Z,13.8
2022-12-08T13:37:29.135Z,14.2
2022-12-08T13:38:36.025Z,14.1
2022-12-08T13:39:43.280Z,13.4
2022-12-08T13:40:50.396Z,12.8
2022-12-08T13:41:57.705Z,13.1
2022-12-08T13:43:09.863Z,12.5
2022-12-08T13:46:26.495Z,13.3
2022-12-08T13:47:09.722Z,14
2022-12-08T13:48:20.831Z,13.9
2022-12-08T13:50:42.937Z,13.6
2022-12-08T13:52:37.315Z,15.2
2022-12-08T13:54:42.834Z,15.7
2022-12-08T13:56:51.944Z,15.8
2022-12-08T13:57:10.916Z,17.2
2022-12-08T13:58:13.980Z,15.9
2022-12-08T13:59:21.300Z,15.6
2022-12-08T14:00:33.886Z,14.9
2022-12-08T14:01:40.985Z,14.9
2022-12-08T14:02:48.737Z,15.4
2022-12-08T14:04:30.828Z,15.8
2022-12-08T14:05:17.868Z,14
2022-12-08T14:06:12.823Z,14.4
2022-12-08T14:07:23.264Z,15.5
2022-12-08T14:08:58.237Z,15.6
2022-12-08T14:09:38.446Z,15.4
2022-12-08T14:10:45.700Z,15.8
2022-12-08T14:11:52.895Z,15.9
2022-12-08T14:12:59.969Z,17.1
2022-12-08T14:14:07.968Z,16.2
2022-12-08T14:15:19.236Z,14.3
2022-12-08T14:16:26.273Z,13.2
2022-12-08T14:17:38.081Z,12.6
2022-12-08T14:18:45.360Z,13.4
2022-12-08T14:19:52.361Z,13.1
2022-12-08T14:21:21.337Z,13.5
2022-12-08T14:22:15.379Z,12.7
2022-12-08T14:23:22.500Z,13.5
2022-12-08T14:24:29.668Z,12.7
2022-12-08T14:25:38.158Z,13.5
2022-12-08T14:26:46.847Z,13.8
2022-12-08T14:27:57.094Z,13.8
2022-12-08T14:29:04.286Z,14.1
2022-12-08T14:30:11.486Z,13.7
2022-12-08T14:31:23.790Z,15
2022-12-08T14:32:30.762Z,15.1
2022-12-08T14:33:40.920Z,16
2022-12-08T14:34:48.228Z,16.4
2022-12-08T14:36:03.225Z,16
2022-12-08T14:37:10.494Z,17.5
2022-12-08T14:38:18.575Z,17.5
2022-12-08T14:39:26.093Z,17
2022-12-08T14:40:34.456Z,18
2022-12-08T14:41:41.512Z,16.4
2022-12-08T14:42:48.593Z,17.7
2022-12-08T14:44:05.937Z,18.5
2022-12-08T14:45:24.338Z,18.2
2022-12-08T14:46:31.577Z,18.7
2022-12-08T14:47:38.516Z,21.6
2022-12-08T14:48:45.700Z,25.5
2022-12-08T14:49:52.765Z,22.8
2022-12-08T14:51:00.104Z,38.4
2022-12-08T14:52:07.072Z,29.6
2022-12-08T14:53:14.364Z,24.9
2022-12-08T14:54:21.537Z,28.4
2022-12-08T14:55:28.545Z,22.2
2022-12-08T14:56:38.585Z,21.3
2022-12-08T14:57:45.765Z,19.9
2022-12-08T14:58:53.502Z,17.4
2022-12-08T15:00:08.207Z,19.8
2022-12-08T15:01:15.037Z,18.9
2022-12-08T15:02:22.454Z,18.5
2022-12-08T15:03:29.857Z,18.5
2022-12-08T15:04:37.228Z,16.8
2022-12-08T15:05:49.194Z,17.9
2022-12-08T15:06:56.677Z,17
2022-12-08T15:08:09.043Z,18.2
2022-12-08T15:09:15.996Z,17.4
2022-12-08T15:10:32.577Z,16.7
2022-12-08T15:11:39.941Z,18.5
2022-12-08T15:12:47.156Z,18.1
2022-12-08T15:13:59.441Z,16.8
2022-12-08T15:15:06.598Z,17.1
2022-12-08T15:16:13.830Z,17.8
2022-12-08T15:17:31.510Z,17.1
2022-12-08T15:18:44.186Z,17.4
2022-12-08T15:19:51.437Z,18.1
2022-12-08T15:20:58.842Z,17.7
2022-12-08T15:22:06.017Z,16.7
2022-12-08T15:23:16.093Z,18.8
2022-12-08T15:24:31.906Z,19.3
2022-12-08T15:25:39.149Z,19
2022-12-08T15:26:46.201Z,19.5
2022-12-08T15:27:53.327Z,19.9
2022-12-08T15:29:00.439Z,20.1